sensor_id;sensor_type;location;lat;lon;timestamp;P1;durP1;ratioP1;P2;durP2;ratioP2
25409;SDS011;13339;50.840;4.346;2023-04-25T00:00:02;22.27;;;6.03;;
25409;SDS011;13339;50.840;4.346;2023-04-25T00:02:31;19.53;;;5.63;;
25409;SDS011;13339;50.840;4.346;2023-04-25T00:04:59;19.83;;;5.30;;
25409;SDS011;13339;50.840;4.346;2023-04-25T00:07:26;22.60;;;5.53;;
25409;SDS011;13339;50.840;4.346;2023-04-25T00:09:52;19.67;;;4.93;;
25409;SDS011;13339;50.840;4.346;2023-04-25T00:12:18;19.17;;;5.23;;
25409;SDS011;13339;50.840;4.346;2023-04-25T00:14:43;15.43;;;4.27;;
25409;SDS011;13339;50.840;4.346;2023-04-25T00:17:10;19.77;;;5.13;;
25409;SDS011;13339;50.840;4.346;2023-04-25T00:19:36;16.10;;;4.47;;
25409;SDS011;13339;50.840;4.346;2023-04-25T00:22:04;18.67;;;5.00;;
25409;SDS011;13339;50.840;4.346;2023-04-25T00:24:30;18.17;;;4.57;;
25409;SDS011;13339;50.840;4.346;2023-04-25T00:26:56;24.57;;;4.63;;
25409;SDS011;13339;50.840;4.346;2023-04-25T00:29:21;21.10;;;5.40;;
25409;SDS011;13339;50.840;4.346;2023-04-25T00:31:47;20.47;;;5.00;;
25409;SDS011;13339;50.840;4.346;2023-04-25T00:34:12;21.87;;;5.03;;
25409;SDS011;13339;50.840;4.346;2023-04-25T00:36:38;14.93;;;4.63;;
25409;SDS011;13339;50.840;4.346;2023-04-25T00:39:04;32.07;;;5.60;;
25409;SDS011;13339;50.840;4.346;2023-04-25T00:41:30;21.80;;;5.13;;
25409;SDS011;13339;50.840;4.346;2023-04-25T00:43:55;17.00;;;5.10;;
25409;SDS011;13339;50.840;4.346;2023-04-25T00:46:22;18.60;;;6.07;;
25409;SDS011;13339;50.840;4.346;2023-04-25T00:48:48;19.27;;;4.97;;
25409;SDS011;13339;50.840;4.346;2023-04-25T00:51:15;25.37;;;5.63;;
25409;SDS011;13339;50.840;4.346;2023-04-25T00:53:44;24.43;;;6.07;;
25409;SDS011;13339;50.840;4.346;2023-04-25T00:56:10;17.93;;;5.00;;
25409;SDS011;13339;50.840;4.346;2023-04-25T00:58:36;19.77;;;5.90;;
25409;SDS011;13339;50.840;4.346;2023-04-25T01:01:03;17.10;;;5.13;;
25409;SDS011;13339;50.840;4.346;2023-04-25T01:03:29;22.47;;;5.37;;
25409;SDS011;13339;50.840;4.346;2023-04-25T01:05:57;22.07;;;5.53;;
25409;SDS011;13339;50.840;4.346;2023-04-25T01:08:24;25.40;;;5.57;;
25409;SDS011;13339;50.840;4.346;2023-04-25T01:10:52;18.23;;;5.40;;
25409;SDS011;13339;50.840;4.346;2023-04-25T01:13:18;18.43;;;5.53;;
25409;SDS011;13339;50.840;4.346;2023-04-25T01:15:44;19.53;;;6.13;;
25409;SDS011;13339;50.840;4.346;2023-04-25T01:18:10;22.33;;;5.47;;
25409;SDS011;13339;50.840;4.346;2023-04-25T01:20:37;23.47;;;5.47;;
25409;SDS011;13339;50.840;4.346;2023-04-25T01:23:03;23.53;;;5.93;;
25409;SDS011;13339;50.840;4.346;2023-04-25T01:25:29;20.93;;;5.40;;
25409;SDS011;13339;50.840;4.346;2023-04-25T01:27:56;21.90;;;6.30;;
25409;SDS011;13339;50.840;4.346;2023-04-25T01:30:22;16.53;;;5.23;;
25409;SDS011;13339;50.840;4.346;2023-04-25T01:32:48;24.00;;;5.23;;
25409;SDS011;13339;50.840;4.346;2023-04-25T01:35:14;21.60;;;6.03;;
25409;SDS011;13339;50.840;4.346;2023-04-25T01:37:40;24.80;;;5.43;;
25409;SDS011;13339;50.840;4.346;2023-04-25T01:40:08;18.20;;;5.37;;
25409;SDS011;13339;50.840;4.346;2023-04-25T01:42:36;19.17;;;5.77;;
25409;SDS011;13339;50.840;4.346;2023-04-25T01:45:05;17.13;;;5.70;;
25409;SDS011;13339;50.840;4.346;2023-04-25T01:47:32;15.13;;;5.47;;
25409;SDS011;13339;50.840;4.346;2023-04-25T01:50:00;33.17;;;6.50;;
25409;SDS011;13339;50.840;4.346;2023-04-25T01:52:26;19.93;;;6.43;;
25409;SDS011;13339;50.840;4.346;2023-04-25T01:54:52;16.97;;;5.30;;
25409;SDS011;13339;50.840;4.346;2023-04-25T01:57:19;20.10;;;5.37;;
25409;SDS011;13339;50.840;4.346;2023-04-25T01:59:45;24.03;;;5.60;;
25409;SDS011;13339;50.840;4.346;2023-04-25T02:02:11;23.43;;;5.07;;
25409;SDS011;13339;50.840;4.346;2023-04-25T02:04:36;21.90;;;5.80;;
25409;SDS011;13339;50.840;4.346;2023-04-25T02:07:02;29.57;;;4.93;;
25409;SDS011;13339;50.840;4.346;2023-04-25T02:09:28;17.50;;;5.33;;
25409;SDS011;13339;50.840;4.346;2023-04-25T02:11:54;20.53;;;6.03;;
25409;SDS011;13339;50.840;4.346;2023-04-25T02:14:20;27.20;;;5.80;;
25409;SDS011;13339;50.840;4.346;2023-04-25T02:16:46;29.27;;;6.17;;
25409;SDS011;13339;50.840;4.346;2023-04-25T02:19:12;15.53;;;6.03;;
25409;SDS011;13339;50.840;4.346;2023-04-25T02:21:38;30.67;;;5.50;;
25409;SDS011;13339;50.840;4.346;2023-04-25T02:24:03;25.77;;;5.50;;
25409;SDS011;13339;50.840;4.346;2023-04-25T02:26:29;18.10;;;5.53;;
25409;SDS011;13339;50.840;4.346;2023-04-25T02:28:56;18.30;;;6.10;;
25409;SDS011;13339;50.840;4.346;2023-04-25T02:31:22;20.57;;;4.77;;
25409;SDS011;13339;50.840;4.346;2023-04-25T02:33:47;30.63;;;6.27;;
25409;SDS011;13339;50.840;4.346;2023-04-25T02:36:13;21.57;;;5.73;;
25409;SDS011;13339;50.840;4.346;2023-04-25T02:38:39;20.80;;;5.47;;
25409;SDS011;13339;50.840;4.346;2023-04-25T02:41:05;21.27;;;6.00;;
25409;SDS011;13339;50.840;4.346;2023-04-25T02:43:31;20.53;;;5.30;;
25409;SDS011;13339;50.840;4.346;2023-04-25T02:45:57;27.87;;;6.40;;
25409;SDS011;13339;50.840;4.346;2023-04-25T02:48:22;30.63;;;6.00;;
25409;SDS011;13339;50.840;4.346;2023-04-25T02:50:48;25.10;;;6.03;;
25409;SDS011;13339;50.840;4.346;2023-04-25T02:53:13;24.17;;;5.60;;
25409;SDS011;13339;50.840;4.346;2023-04-25T02:55:40;19.50;;;5.77;;
25409;SDS011;13339;50.840;4.346;2023-04-25T02:58:05;22.10;;;5.97;;
25409;SDS011;13339;50.840;4.346;2023-04-25T03:00:31;21.77;;;6.57;;
25409;SDS011;13339;50.840;4.346;2023-04-25T03:02:57;21.20;;;5.63;;
25409;SDS011;13339;50.840;4.346;2023-04-25T03:05:22;23.50;;;5.83;;
25409;SDS011;13339;50.840;4.346;2023-04-25T03:07:48;23.60;;;5.60;;
25409;SDS011;13339;50.840;4.346;2023-04-25T03:10:13;22.23;;;5.77;;
25409;SDS011;13339;50.840;4.346;2023-04-25T03:12:39;24.90;;;6.07;;
25409;SDS011;13339;50.840;4.346;2023-04-25T03:15:05;23.93;;;6.37;;
25409;SDS011;13339;50.840;4.346;2023-04-25T03:17:31;26.83;;;6.07;;
25409;SDS011;13339;50.840;4.346;2023-04-25T03:19:57;21.27;;;5.37;;
25409;SDS011;13339;50.840;4.346;2023-04-25T03:22:23;22.30;;;5.47;;
25409;SDS011;13339;50.840;4.346;2023-04-25T03:24:49;20.10;;;5.80;;
25409;SDS011;13339;50.840;4.346;2023-04-25T03:27:15;29.33;;;6.43;;
25409;SDS011;13339;50.840;4.346;2023-04-25T03:29:41;16.30;;;5.80;;
25409;SDS011;13339;50.840;4.346;2023-04-25T03:32:07;20.50;;;5.43;;
25409;SDS011;13339;50.840;4.346;2023-04-25T03:34:32;17.47;;;5.60;;
25409;SDS011;13339;50.840;4.346;2023-04-25T03:36:58;22.20;;;5.77;;
25409;SDS011;13339;50.840;4.346;2023-04-25T03:39:24;33.57;;;6.43;;
25409;SDS011;13339;50.840;4.346;2023-04-25T03:41:50;25.73;;;6.23;;
25409;SDS011;13339;50.840;4.346;2023-04-25T03:44:16;25.33;;;5.97;;
25409;SDS011;13339;50.840;4.346;2023-04-25T03:46:42;21.50;;;5.47;;
25409;SDS011;13339;50.840;4.346;2023-04-25T03:49:07;22.50;;;5.83;;
25409;SDS011;13339;50.840;4.346;2023-04-25T03:51:33;24.67;;;6.50;;
25409;SDS011;13339;50.840;4.346;2023-04-25T03:53:59;16.87;;;5.10;;
25409;SDS011;13339;50.840;4.346;2023-04-25T03:56:25;20.80;;;5.10;;
25409;SDS011;13339;50.840;4.346;2023-04-25T03:58:50;19.07;;;5.13;;
25409;SDS011;13339;50.840;4.346;2023-04-25T04:01:16;14.10;;;4.50;;
25409;SDS011;13339;50.840;4.346;2023-04-25T04:03:41;31.90;;;6.07;;
25409;SDS011;13339;50.840;4.346;2023-04-25T04:06:07;17.53;;;6.40;;
25409;SDS011;13339;50.840;4.346;2023-04-25T04:08:34;21.97;;;5.80;;
25409;SDS011;13339;50.840;4.346;2023-04-25T04:11:00;22.37;;;5.20;;
25409;SDS011;13339;50.840;4.346;2023-04-25T04:13:26;19.43;;;4.67;;
25409;SDS011;13339;50.840;4.346;2023-04-25T04:15:52;17.93;;;4.30;;
25409;SDS011;13339;50.840;4.346;2023-04-25T04:18:18;20.00;;;5.07;;
25409;SDS011;13339;50.840;4.346;2023-04-25T04:20:44;20.10;;;5.43;;
25409;SDS011;13339;50.840;4.346;2023-04-25T04:23:10;19.10;;;4.77;;
25409;SDS011;13339;50.840;4.346;2023-04-25T04:25:36;17.83;;;5.00;;
25409;SDS011;13339;50.840;4.346;2023-04-25T04:28:02;19.17;;;5.23;;
25409;SDS011;13339;50.840;4.346;2023-04-25T04:30:28;21.73;;;5.70;;
25409;SDS011;13339;50.840;4.346;2023-04-25T04:32:56;22.03;;;4.73;;
25409;SDS011;13339;50.840;4.346;2023-04-25T04:35:23;14.97;;;4.60;;
25409;SDS011;13339;50.840;4.346;2023-04-25T04:37:49;23.40;;;5.60;;
25409;SDS011;13339;50.840;4.346;2023-04-25T04:40:15;23.27;;;5.13;;
25409;SDS011;13339;50.840;4.346;2023-04-25T04:42:42;24.23;;;4.97;;
25409;SDS011;13339;50.840;4.346;2023-04-25T04:45:10;15.13;;;4.33;;
25409;SDS011;13339;50.840;4.346;2023-04-25T04:47:38;24.57;;;5.50;;
25409;SDS011;13339;50.840;4.346;2023-04-25T04:50:05;28.07;;;5.47;;
25409;SDS011;13339;50.840;4.346;2023-04-25T04:52:33;19.30;;;5.37;;
25409;SDS011;13339;50.840;4.346;2023-04-25T04:55:03;20.60;;;6.07;;
25409;SDS011;13339;50.840;4.346;2023-04-25T04:57:29;23.90;;;6.17;;
25409;SDS011;13339;50.840;4.346;2023-04-25T04:59:55;20.47;;;6.30;;
25409;SDS011;13339;50.840;4.346;2023-04-25T05:02:21;24.97;;;6.67;;
25409;SDS011;13339;50.840;4.346;2023-04-25T05:04:47;24.90;;;6.13;;
25409;SDS011;13339;50.840;4.346;2023-04-25T05:07:13;15.13;;;5.67;;
25409;SDS011;13339;50.840;4.346;2023-04-25T05:09:38;18.57;;;6.20;;
25409;SDS011;13339;50.840;4.346;2023-04-25T05:12:04;19.97;;;5.43;;
25409;SDS011;13339;50.840;4.346;2023-04-25T05:14:30;16.60;;;5.73;;
25409;SDS011;13339;50.840;4.346;2023-04-25T05:16:56;16.53;;;5.43;;
25409;SDS011;13339;50.840;4.346;2023-04-25T05:19:22;20.63;;;4.37;;
25409;SDS011;13339;50.840;4.346;2023-04-25T05:21:48;15.30;;;4.80;;
25409;SDS011;13339;50.840;4.346;2023-04-25T05:24:14;18.90;;;5.80;;
25409;SDS011;13339;50.840;4.346;2023-04-25T05:26:39;23.17;;;5.13;;
25409;SDS011;13339;50.840;4.346;2023-04-25T05:29:05;17.53;;;6.43;;
25409;SDS011;13339;50.840;4.346;2023-04-25T05:31:31;27.00;;;6.03;;
25409;SDS011;13339;50.840;4.346;2023-04-25T05:33:57;19.00;;;5.77;;
25409;SDS011;13339;50.840;4.346;2023-04-25T05:36:23;17.57;;;5.67;;
25409;SDS011;13339;50.840;4.346;2023-04-25T05:38:48;21.50;;;6.57;;
25409;SDS011;13339;50.840;4.346;2023-04-25T05:41:14;25.13;;;6.80;;
25409;SDS011;13339;50.840;4.346;2023-04-25T05:43:39;19.37;;;7.23;;
25409;SDS011;13339;50.840;4.346;2023-04-25T05:46:10;20.40;;;6.80;;
25409;SDS011;13339;50.840;4.346;2023-04-25T05:48:36;25.67;;;7.17;;
25409;SDS011;13339;50.840;4.346;2023-04-25T05:51:02;16.10;;;6.57;;
25409;SDS011;13339;50.840;4.346;2023-04-25T05:53:28;15.83;;;6.37;;
25409;SDS011;13339;50.840;4.346;2023-04-25T05:55:53;20.43;;;6.40;;
25409;SDS011;13339;50.840;4.346;2023-04-25T05:58:19;18.10;;;6.23;;
25409;SDS011;13339;50.840;4.346;2023-04-25T06:00:45;19.50;;;5.70;;
25409;SDS011;13339;50.840;4.346;2023-04-25T06:03:11;21.43;;;6.30;;
25409;SDS011;13339;50.840;4.346;2023-04-25T06:05:39;20.30;;;6.13;;
25409;SDS011;13339;50.840;4.346;2023-04-25T06:08:06;19.17;;;5.87;;
25409;SDS011;13339;50.840;4.346;2023-04-25T06:10:31;25.57;;;6.37;;
25409;SDS011;13339;50.840;4.346;2023-04-25T06:12:57;22.73;;;6.33;;
25409;SDS011;13339;50.840;4.346;2023-04-25T06:15:23;17.03;;;6.43;;
25409;SDS011;13339;50.840;4.346;2023-04-25T06:17:48;21.30;;;6.90;;
25409;SDS011;13339;50.840;4.346;2023-04-25T06:20:14;23.37;;;7.00;;
25409;SDS011;13339;50.840;4.346;2023-04-25T06:22:39;26.63;;;6.47;;
25409;SDS011;13339;50.840;4.346;2023-04-25T06:25:05;17.67;;;6.00;;
25409;SDS011;13339;50.840;4.346;2023-04-25T06:27:32;18.27;;;5.90;;
25409;SDS011;13339;50.840;4.346;2023-04-25T06:29:58;19.73;;;6.07;;
25409;SDS011;13339;50.840;4.346;2023-04-25T06:32:24;21.50;;;6.13;;
25409;SDS011;13339;50.840;4.346;2023-04-25T06:34:51;12.30;;;4.83;;
25409;SDS011;13339;50.840;4.346;2023-04-25T06:37:16;18.90;;;5.37;;
25409;SDS011;13339;50.840;4.346;2023-04-25T06:39:42;24.63;;;6.20;;
25409;SDS011;13339;50.840;4.346;2023-04-25T06:42:08;12.87;;;4.53;;
25409;SDS011;13339;50.840;4.346;2023-04-25T06:44:33;18.47;;;4.53;;
25409;SDS011;13339;50.840;4.346;2023-04-25T06:46:59;16.03;;;4.67;;
25409;SDS011;13339;50.840;4.346;2023-04-25T06:49:25;18.83;;;4.13;;
25409;SDS011;13339;50.840;4.346;2023-04-25T06:51:50;12.87;;;4.13;;
25409;SDS011;13339;50.840;4.346;2023-04-25T06:54:16;22.87;;;4.80;;
25409;SDS011;13339;50.840;4.346;2023-04-25T06:56:42;16.13;;;4.77;;
25409;SDS011;13339;50.840;4.346;2023-04-25T06:59:08;20.60;;;4.73;;
25409;SDS011;13339;50.840;4.346;2023-04-25T07:01:34;16.57;;;4.67;;
25409;SDS011;13339;50.840;4.346;2023-04-25T07:04:00;17.57;;;4.83;;
25409;SDS011;13339;50.840;4.346;2023-04-25T07:06:25;14.17;;;4.60;;
25409;SDS011;13339;50.840;4.346;2023-04-25T07:08:52;24.23;;;4.57;;
25409;SDS011;13339;50.840;4.346;2023-04-25T07:11:18;15.27;;;4.13;;
25409;SDS011;13339;50.840;4.346;2023-04-25T07:13:44;15.07;;;4.63;;
25409;SDS011;13339;50.840;4.346;2023-04-25T07:16:10;20.13;;;4.50;;
25409;SDS011;13339;50.840;4.346;2023-04-25T07:18:35;12.67;;;4.03;;
25409;SDS011;13339;50.840;4.346;2023-04-25T07:21:01;14.00;;;4.50;;
25409;SDS011;13339;50.840;4.346;2023-04-25T07:23:27;12.90;;;3.97;;
25409;SDS011;13339;50.840;4.346;2023-04-25T07:25:52;16.03;;;4.77;;
25409;SDS011;13339;50.840;4.346;2023-04-25T07:28:18;21.47;;;4.50;;
25409;SDS011;13339;50.840;4.346;2023-04-25T07:30:44;10.13;;;3.40;;
25409;SDS011;13339;50.840;4.346;2023-04-25T07:33:09;17.60;;;3.90;;
25409;SDS011;13339;50.840;4.346;2023-04-25T07:35:35;15.47;;;4.20;;
25409;SDS011;13339;50.840;4.346;2023-04-25T07:38:01;12.70;;;3.80;;
25409;SDS011;13339;50.840;4.346;2023-04-25T07:40:28;13.97;;;3.40;;
25409;SDS011;13339;50.840;4.346;2023-04-25T07:42:53;12.30;;;3.77;;
25409;SDS011;13339;50.840;4.346;2023-04-25T07:45:19;9.47;;;3.47;;
25409;SDS011;13339;50.840;4.346;2023-04-25T07:47:45;25.50;;;4.37;;
25409;SDS011;13339;50.840;4.346;2023-04-25T07:50:10;17.07;;;3.40;;
25409;SDS011;13339;50.840;4.346;2023-04-25T07:52:36;12.13;;;3.10;;
25409;SDS011;13339;50.840;4.346;2023-04-25T07:55:02;17.87;;;3.50;;
25409;SDS011;13339;50.840;4.346;2023-04-25T07:57:28;10.53;;;3.63;;
25409;SDS011;13339;50.840;4.346;2023-04-25T07:59:54;21.97;;;4.20;;
25409;SDS011;13339;50.840;4.346;2023-04-25T08:02:19;18.23;;;3.63;;
25409;SDS011;13339;50.840;4.346;2023-04-25T08:04:45;12.53;;;2.83;;
25409;SDS011;13339;50.840;4.346;2023-04-25T08:07:11;8.07;;;3.17;;
25409;SDS011;13339;50.840;4.346;2023-04-25T08:09:37;14.67;;;3.57;;
25409;SDS011;13339;50.840;4.346;2023-04-25T08:12:03;14.23;;;3.57;;
25409;SDS011;13339;50.840;4.346;2023-04-25T08:14:29;15.57;;;3.67;;
25409;SDS011;13339;50.840;4.346;2023-04-25T08:17:00;12.13;;;3.07;;
25409;SDS011;13339;50.840;4.346;2023-04-25T08:19:27;11.57;;;3.27;;
25409;SDS011;13339;50.840;4.346;2023-04-25T08:21:52;15.03;;;4.27;;
25409;SDS011;13339;50.840;4.346;2023-04-25T08:24:18;19.90;;;4.33;;
25409;SDS011;13339;50.840;4.346;2023-04-25T08:26:43;14.57;;;3.50;;
25409;SDS011;13339;50.840;4.346;2023-04-25T08:29:09;14.23;;;3.60;;
25409;SDS011;13339;50.840;4.346;2023-04-25T08:31:34;14.70;;;3.33;;
25409;SDS011;13339;50.840;4.346;2023-04-25T08:34:00;14.93;;;4.07;;
25409;SDS011;13339;50.840;4.346;2023-04-25T08:36:26;13.27;;;3.10;;
25409;SDS011;13339;50.840;4.346;2023-04-25T08:38:53;16.37;;;3.20;;
25409;SDS011;13339;50.840;4.346;2023-04-25T08:41:18;10.13;;;3.43;;
25409;SDS011;13339;50.840;4.346;2023-04-25T08:43:46;12.40;;;3.37;;
25409;SDS011;13339;50.840;4.346;2023-04-25T08:46:13;14.50;;;2.90;;
25409;SDS011;13339;50.840;4.346;2023-04-25T08:48:43;6.33;;;2.77;;
25409;SDS011;13339;50.840;4.346;2023-04-25T08:51:10;11.97;;;3.13;;
25409;SDS011;13339;50.840;4.346;2023-04-25T08:53:50;11.50;;;3.30;;
25409;SDS011;13339;50.840;4.346;2023-04-25T08:56:17;14.47;;;3.67;;
25409;SDS011;13339;50.840;4.346;2023-04-25T08:58:45;11.23;;;3.03;;
25409;SDS011;13339;50.840;4.346;2023-04-25T09:01:14;11.90;;;2.80;;
25409;SDS011;13339;50.840;4.346;2023-04-25T09:03:39;13.33;;;3.10;;
25409;SDS011;13339;50.840;4.346;2023-04-25T09:06:05;9.27;;;3.00;;
25409;SDS011;13339;50.840;4.346;2023-04-25T09:08:32;10.07;;;2.27;;
25409;SDS011;13339;50.840;4.346;2023-04-25T09:10:57;7.63;;;2.50;;
25409;SDS011;13339;50.840;4.346;2023-04-25T09:13:24;8.80;;;2.70;;
25409;SDS011;13339;50.840;4.346;2023-04-25T09:15:52;13.33;;;3.20;;
25409;SDS011;13339;50.840;4.346;2023-04-25T09:18:25;10.70;;;2.90;;
25409;SDS011;13339;50.840;4.346;2023-04-25T09:20:56;13.43;;;3.47;;
25409;SDS011;13339;50.840;4.346;2023-04-25T09:23:29;11.07;;;2.77;;
25409;SDS011;13339;50.840;4.346;2023-04-25T09:25:54;12.97;;;2.70;;
25409;SDS011;13339;50.840;4.346;2023-04-25T09:28:24;11.67;;;3.00;;
25409;SDS011;13339;50.840;4.346;2023-04-25T09:30:56;8.40;;;2.83;;
25409;SDS011;13339;50.840;4.346;2023-04-25T09:33:26;9.80;;;3.00;;
25409;SDS011;13339;50.840;4.346;2023-04-25T09:36:04;10.07;;;2.40;;
25409;SDS011;13339;50.840;4.346;2023-04-25T09:38:40;14.50;;;2.90;;
25409;SDS011;13339;50.840;4.346;2023-04-25T09:41:07;8.60;;;2.37;;
25409;SDS011;13339;50.840;4.346;2023-04-25T09:43:34;12.13;;;2.77;;
25409;SDS011;13339;50.840;4.346;2023-04-25T09:46:00;12.37;;;2.40;;
25409;SDS011;13339;50.840;4.346;2023-04-25T09:48:27;8.10;;;2.50;;
25409;SDS011;13339;50.840;4.346;2023-04-25T09:53:38;8.90;;;2.77;;
25409;SDS011;13339;50.840;4.346;2023-04-25T09:56:06;12.43;;;2.77;;
25409;SDS011;13339;50.840;4.346;2023-04-25T09:58:34;12.33;;;3.37;;
25409;SDS011;13339;50.840;4.346;2023-04-25T10:01:01;8.37;;;2.53;;
25409;SDS011;13339;50.840;4.346;2023-04-25T10:03:32;9.97;;;2.50;;
25409;SDS011;13339;50.840;4.346;2023-04-25T10:06:02;6.77;;;2.33;;
25409;SDS011;13339;50.840;4.346;2023-04-25T10:08:36;8.27;;;2.43;;
25409;SDS011;13339;50.840;4.346;2023-04-25T10:11:03;12.80;;;2.33;;
25409;SDS011;13339;50.840;4.346;2023-04-25T10:13:32;11.40;;;2.50;;
25409;SDS011;13339;50.840;4.346;2023-04-25T10:16:00;7.00;;;2.17;;
25409;SDS011;13339;50.840;4.346;2023-04-25T10:18:27;5.37;;;1.67;;
25409;SDS011;13339;50.840;4.346;2023-04-25T10:20:57;6.27;;;1.80;;
25409;SDS011;13339;50.840;4.346;2023-04-25T10:23:25;9.20;;;2.30;;
25409;SDS011;13339;50.840;4.346;2023-04-25T10:25:52;4.40;;;1.87;;
25409;SDS011;13339;50.840;4.346;2023-04-25T10:28:19;7.73;;;2.10;;
25409;SDS011;13339;50.840;4.346;2023-04-25T10:36:08;6.70;;;1.93;;
25409;SDS011;13339;50.840;4.346;2023-04-25T10:38:35;9.23;;;2.10;;
25409;SDS011;13339;50.840;4.346;2023-04-25T10:41:11;5.70;;;2.10;;
25409;SDS011;13339;50.840;4.346;2023-04-25T10:43:39;4.93;;;1.73;;
25409;SDS011;13339;50.840;4.346;2023-04-25T10:46:12;6.27;;;1.80;;
25409;SDS011;13339;50.840;4.346;2023-04-25T10:48:38;6.03;;;1.90;;
25409;SDS011;13339;50.840;4.346;2023-04-25T10:51:19;9.37;;;2.13;;
25409;SDS011;13339;50.840;4.346;2023-04-25T10:53:45;4.33;;;1.97;;
25409;SDS011;13339;50.840;4.346;2023-04-25T10:56:18;4.13;;;2.37;;
25409;SDS011;13339;50.840;4.346;2023-04-25T10:58:48;9.37;;;2.30;;
25409;SDS011;13339;50.840;4.346;2023-04-25T11:01:14;8.10;;;2.00;;
25409;SDS011;13339;50.840;4.346;2023-04-25T11:03:44;9.00;;;3.00;;
25409;SDS011;13339;50.840;4.346;2023-04-25T11:08:49;10.20;;;2.87;;
25409;SDS011;13339;50.840;4.346;2023-04-25T11:11:16;10.50;;;2.87;;
25409;SDS011;13339;50.840;4.346;2023-04-25T11:13:43;11.50;;;2.57;;
25409;SDS011;13339;50.840;4.346;2023-04-25T11:16:09;5.73;;;2.27;;
25409;SDS011;13339;50.840;4.346;2023-04-25T11:18:35;7.53;;;2.23;;
25409;SDS011;13339;50.840;4.346;2023-04-25T11:21:00;8.67;;;2.30;;
25409;SDS011;13339;50.840;4.346;2023-04-25T11:23:28;5.27;;;1.43;;
25409;SDS011;13339;50.840;4.346;2023-04-25T11:25:55;7.77;;;1.80;;
25409;SDS011;13339;50.840;4.346;2023-04-25T11:28:21;10.63;;;2.53;;
25409;SDS011;13339;50.840;4.346;2023-04-25T11:30:48;5.80;;;1.80;;
25409;SDS011;13339;50.840;4.346;2023-04-25T11:33:15;7.00;;;2.10;;
25409;SDS011;13339;50.840;4.346;2023-04-25T11:35:41;9.00;;;1.90;;
25409;SDS011;13339;50.840;4.346;2023-04-25T11:38:07;7.80;;;1.67;;
25409;SDS011;13339;50.840;4.346;2023-04-25T11:40:33;6.23;;;1.70;;
25409;SDS011;13339;50.840;4.346;2023-04-25T11:43:00;9.73;;;2.73;;
25409;SDS011;13339;50.840;4.346;2023-04-25T11:45:26;6.73;;;1.93;;
25409;SDS011;13339;50.840;4.346;2023-04-25T11:47:54;3.27;;;1.70;;
25409;SDS011;13339;50.840;4.346;2023-04-25T11:50:19;5.63;;;2.17;;
25409;SDS011;13339;50.840;4.346;2023-04-25T11:52:46;8.00;;;1.50;;
25409;SDS011;13339;50.840;4.346;2023-04-25T11:55:13;7.03;;;2.57;;
25409;SDS011;13339;50.840;4.346;2023-04-25T11:57:40;9.27;;;2.20;;
25409;SDS011;13339;50.840;4.346;2023-04-25T12:00:13;6.67;;;2.40;;
25409;SDS011;13339;50.840;4.346;2023-04-25T12:02:51;7.80;;;1.60;;
25409;SDS011;13339;50.840;4.346;2023-04-25T12:05:18;7.77;;;2.33;;
25409;SDS011;13339;50.840;4.346;2023-04-25T12:07:44;3.57;;;1.50;;
25409;SDS011;13339;50.840;4.346;2023-04-25T12:10:12;9.57;;;2.23;;
25409;SDS011;13339;50.840;4.346;2023-04-25T12:12:43;4.73;;;1.90;;
25409;SDS011;13339;50.840;4.346;2023-04-25T12:15:17;6.00;;;1.97;;
25409;SDS011;13339;50.840;4.346;2023-04-25T12:17:53;7.17;;;1.90;;
25409;SDS011;13339;50.840;4.346;2023-04-25T12:20:20;5.00;;;2.20;;
25409;SDS011;13339;50.840;4.346;2023-04-25T12:22:49;5.40;;;2.07;;
25409;SDS011;13339;50.840;4.346;2023-04-25T12:25:35;13.13;;;2.53;;
25409;SDS011;13339;50.840;4.346;2023-04-25T12:28:11;4.33;;;1.47;;
25409;SDS011;13339;50.840;4.346;2023-04-25T12:33:19;3.90;;;1.87;;
25409;SDS011;13339;50.840;4.346;2023-04-25T12:35:46;4.50;;;1.47;;
25409;SDS011;13339;50.840;4.346;2023-04-25T12:38:20;9.70;;;2.27;;
25409;SDS011;13339;50.840;4.346;2023-04-25T12:40:46;4.43;;;1.40;;
25409;SDS011;13339;50.840;4.346;2023-04-25T12:43:12;5.93;;;1.30;;
25409;SDS011;13339;50.840;4.346;2023-04-25T12:45:37;4.40;;;1.40;;
25409;SDS011;13339;50.840;4.346;2023-04-25T12:48:03;4.13;;;1.60;;
25409;SDS011;13339;50.840;4.346;2023-04-25T12:50:29;5.60;;;2.70;;
25409;SDS011;13339;50.840;4.346;2023-04-25T12:52:55;6.13;;;2.60;;
25409;SDS011;13339;50.840;4.346;2023-04-25T12:55:20;4.73;;;1.60;;
25409;SDS011;13339;50.840;4.346;2023-04-25T12:57:46;6.10;;;1.80;;
25409;SDS011;13339;50.840;4.346;2023-04-25T13:00:12;10.10;;;1.90;;
25409;SDS011;13339;50.840;4.346;2023-04-25T13:02:39;7.43;;;1.97;;
25409;SDS011;13339;50.840;4.346;2023-04-25T13:05:05;9.20;;;2.00;;
25409;SDS011;13339;50.840;4.346;2023-04-25T13:07:31;7.97;;;2.07;;
25409;SDS011;13339;50.840;4.346;2023-04-25T13:09:57;5.17;;;2.00;;
25409;SDS011;13339;50.840;4.346;2023-04-25T13:12:23;7.90;;;1.77;;
25409;SDS011;13339;50.840;4.346;2023-04-25T13:14:49;6.93;;;1.80;;
25409;SDS011;13339;50.840;4.346;2023-04-25T13:17:15;6.47;;;1.97;;
25409;SDS011;13339;50.840;4.346;2023-04-25T13:19:40;4.83;;;1.60;;
25409;SDS011;13339;50.840;4.346;2023-04-25T13:22:06;6.80;;;1.70;;
25409;SDS011;13339;50.840;4.346;2023-04-25T13:24:32;5.83;;;1.70;;
25409;SDS011;13339;50.840;4.346;2023-04-25T13:26:57;5.33;;;1.53;;
25409;SDS011;13339;50.840;4.346;2023-04-25T13:29:23;5.07;;;1.63;;
25409;SDS011;13339;50.840;4.346;2023-04-25T13:31:49;5.93;;;1.73;;
25409;SDS011;13339;50.840;4.346;2023-04-25T13:34:15;3.10;;;1.53;;
25409;SDS011;13339;50.840;4.346;2023-04-25T13:36:40;6.40;;;1.33;;
25409;SDS011;13339;50.840;4.346;2023-04-25T13:39:06;5.73;;;1.90;;
25409;SDS011;13339;50.840;4.346;2023-04-25T13:41:32;9.37;;;1.70;;
25409;SDS011;13339;50.840;4.346;2023-04-25T13:43:57;11.73;;;1.93;;
25409;SDS011;13339;50.840;4.346;2023-04-25T13:46:23;6.97;;;1.53;;
25409;SDS011;13339;50.840;4.346;2023-04-25T13:48:49;4.20;;;1.57;;
25409;SDS011;13339;50.840;4.346;2023-04-25T13:51:15;5.13;;;1.30;;
25409;SDS011;13339;50.840;4.346;2023-04-25T13:53:42;5.73;;;1.53;;
25409;SDS011;13339;50.840;4.346;2023-04-25T13:56:08;4.80;;;1.60;;
25409;SDS011;13339;50.840;4.346;2023-04-25T13:58:33;5.10;;;1.50;;
25409;SDS011;13339;50.840;4.346;2023-04-25T14:00:59;4.17;;;1.83;;
25409;SDS011;13339;50.840;4.346;2023-04-25T14:03:25;6.87;;;1.60;;
25409;SDS011;13339;50.840;4.346;2023-04-25T14:05:50;7.13;;;1.70;;
25409;SDS011;13339;50.840;4.346;2023-04-25T14:08:16;5.63;;;1.60;;
25409;SDS011;13339;50.840;4.346;2023-04-25T14:10:42;7.13;;;1.40;;
25409;SDS011;13339;50.840;4.346;2023-04-25T14:13:07;7.43;;;1.70;;
25409;SDS011;13339;50.840;4.346;2023-04-25T14:15:33;5.33;;;1.70;;
25409;SDS011;13339;50.840;4.346;2023-04-25T14:17:59;3.60;;;1.30;;
25409;SDS011;13339;50.840;4.346;2023-04-25T14:20:26;4.13;;;1.30;;
25409;SDS011;13339;50.840;4.346;2023-04-25T14:22:51;4.93;;;1.67;;
25409;SDS011;13339;50.840;4.346;2023-04-25T14:25:19;5.17;;;1.97;;
25409;SDS011;13339;50.840;4.346;2023-04-25T14:27:45;5.43;;;1.70;;
25409;SDS011;13339;50.840;4.346;2023-04-25T14:30:14;4.23;;;1.60;;
25409;SDS011;13339;50.840;4.346;2023-04-25T14:32:41;2.17;;;1.40;;
25409;SDS011;13339;50.840;4.346;2023-04-25T14:35:06;4.00;;;1.47;;
25409;SDS011;13339;50.840;4.346;2023-04-25T14:37:32;5.63;;;1.87;;
25409;SDS011;13339;50.840;4.346;2023-04-25T14:39:58;6.10;;;2.10;;
25409;SDS011;13339;50.840;4.346;2023-04-25T14:42:24;9.30;;;1.70;;
25409;SDS011;13339;50.840;4.346;2023-04-25T14:44:49;10.33;;;2.20;;
25409;SDS011;13339;50.840;4.346;2023-04-25T14:47:15;4.53;;;1.80;;